createdAt,value
2024-03-29T00:02:08.076Z,5.90
2024-03-29T00:04:46.002Z,5.40
2024-03-29T00:07:23.610Z,6.10
2024-03-29T00:10:02.192Z,5.60
2024-03-29T00:12:40.060Z,5.40
2024-03-29T00:15:17.576Z,5.20
2024-03-29T00:17:55.848Z,5.00
2024-03-29T00:20:25.460Z,4.30
2024-03-29T00:23:01.606Z,4.30
2024-03-29T00:25:39.422Z,4.20
2024-03-29T00:28:17.403Z,4.40
2024-03-29T00:30:54.870Z,4.10
2024-03-29T00:33:33.143Z,3.70
2024-03-29T00:36:13.113Z,3.30
2024-03-29T00:38:51.196Z,4.00
2024-03-29T00:41:28.993Z,3.20
2024-03-29T00:44:07.434Z,3.60
2024-03-29T00:46:45.735Z,4.20
2024-03-29T00:49:23.857Z,4.20
2024-03-29T00:52:01.403Z,4.30
2024-03-29T00:54:39.716Z,3.90
2024-03-29T00:57:18.108Z,4.70
2024-03-29T00:59:57.879Z,3.80
2024-03-29T01:02:35.632Z,3.50
2024-03-29T01:05:06.978Z,3.50
2024-03-29T01:07:43.228Z,3.90
2024-03-29T01:10:23.182Z,3.90
2024-03-29T01:13:00.389Z,3.50
2024-03-29T01:15:37.993Z,3.60
2024-03-29T01:18:15.544Z,3.40
2024-03-29T01:20:53.786Z,3.30
2024-03-29T01:23:31.247Z,3.20
2024-03-29T01:26:13.722Z,3.00
2024-03-29T01:28:51.341Z,2.90
2024-03-29T01:31:29.662Z,3.10
2024-03-29T01:34:07.780Z,2.60
2024-03-29T01:36:45.820Z,2.90
2024-03-29T01:39:34.249Z,2.70
2024-03-29T01:42:13.120Z,2.30
2024-03-29T01:44:51.253Z,2.60
2024-03-29T01:47:29.853Z,2.70
2024-03-29T01:50:08.382Z,2.50
2024-03-29T01:52:46.723Z,2.80
2024-03-29T01:55:24.471Z,2.50
2024-03-29T01:58:02.925Z,2.60
2024-03-29T02:00:51.455Z,2.20
2024-03-29T02:03:29.538Z,2.30
2024-03-29T02:06:07.966Z,2.50
2024-03-29T02:08:45.751Z,2.70
2024-03-29T02:11:23.694Z,2.40
2024-03-29T02:13:58.338Z,2.20
2024-03-29T02:16:28.393Z,2.70
2024-03-29T02:19:05.680Z,2.30
2024-03-29T02:21:49.299Z,2.90
2024-03-29T02:24:25.378Z,2.40
2024-03-29T02:27:05.889Z,2.40
2024-03-29T02:29:43.658Z,2.40
2024-03-29T02:32:22.001Z,2.40
2024-03-29T02:35:02.367Z,2.00
2024-03-29T02:37:42.522Z,2.30
2024-03-29T02:40:21.319Z,2.40
2024-03-29T02:42:59.254Z,2.50
2024-03-29T02:45:37.670Z,2.10
2024-03-29T02:48:16.087Z,2.90
2024-03-29T02:50:53.911Z,2.20
2024-03-29T02:53:31.913Z,2.50
2024-03-29T02:56:11.114Z,2.70
2024-03-29T02:58:48.939Z,2.40
2024-03-29T03:01:26.630Z,2.70
2024-03-29T03:04:05.626Z,2.00
2024-03-29T03:06:44.172Z,2.80
2024-03-29T03:09:40.934Z,2.20
2024-03-29T03:12:18.994Z,2.20
2024-03-29T03:14:56.567Z,2.80
2024-03-29T03:17:34.321Z,2.80
2024-03-29T03:20:14.809Z,1.90
2024-03-29T03:22:55.394Z,2.30
2024-03-29T03:25:32.968Z,2.30
2024-03-29T03:28:13.008Z,2.30
2024-03-29T03:30:50.640Z,2.30
2024-03-29T03:33:28.441Z,2.40
2024-03-29T03:36:06.388Z,3.90
2024-03-29T03:38:44.723Z,2.80
2024-03-29T03:41:22.493Z,3.00
2024-03-29T03:43:51.988Z,2.70
2024-03-29T03:46:27.986Z,2.20
2024-03-29T03:49:05.542Z,2.50
2024-03-29T03:51:43.531Z,2.30
2024-03-29T03:54:21.115Z,2.60
2024-03-29T03:56:58.607Z,2.70
2024-03-29T03:59:35.982Z,2.30
2024-03-29T04:02:14.190Z,2.60
2024-03-29T04:04:54.715Z,2.40
2024-03-29T04:07:31.762Z,2.10
2024-03-29T04:10:10.924Z,2.60
2024-03-29T04:12:48.906Z,2.20
2024-03-29T04:15:26.453Z,2.60
2024-03-29T04:18:05.084Z,2.50
2024-03-29T04:20:42.802Z,2.50
2024-03-29T04:23:12.528Z,2.50
2024-03-29T04:25:54.894Z,2.60
2024-03-29T04:28:29.074Z,2.10
2024-03-29T04:31:07.420Z,2.50
2024-03-29T04:33:44.624Z,2.30
2024-03-29T04:36:21.753Z,2.30
2024-03-29T04:38:58.649Z,2.20
2024-03-29T04:41:38.154Z,2.10
2024-03-29T04:44:25.588Z,2.40
2024-03-29T04:47:02.876Z,2.30
2024-03-29T04:49:40.492Z,2.20
2024-03-29T04:52:18.409Z,2.80
2024-03-29T04:54:56.080Z,2.10
2024-03-29T04:57:33.084Z,2.40
2024-03-29T05:00:11.938Z,2.50
2024-03-29T05:02:49.229Z,2.50
2024-03-29T05:05:26.199Z,2.90
2024-03-29T05:08:07.308Z,2.90
2024-03-29T05:10:47.875Z,2.30
2024-03-29T05:13:25.802Z,2.50
2024-03-29T05:16:03.603Z,2.20
2024-03-29T05:18:33.445Z,2.30
2024-03-29T05:21:10.623Z,2.20
2024-03-29T05:23:48.786Z,2.00
2024-03-29T05:26:25.761Z,2.70
2024-03-29T05:29:05.317Z,2.40
2024-03-29T05:31:44.350Z,2.50
2024-03-29T05:34:21.435Z,2.90
2024-03-29T05:36:59.035Z,2.60
2024-03-29T05:39:36.038Z,2.30
2024-03-29T05:42:13.677Z,2.40
2024-03-29T05:44:51.070Z,2.70
2024-03-29T05:47:28.451Z,2.80
2024-03-29T05:49:58.030Z,2.70
2024-03-29T05:52:31.558Z,2.60
2024-03-29T05:55:10.869Z,2.40
2024-03-29T05:57:49.558Z,2.20
2024-03-29T06:00:26.313Z,2.40
2024-03-29T06:03:06.025Z,2.80
2024-03-29T06:05:44.539Z,2.40
2024-03-29T06:08:22.523Z,2.50
2024-03-29T06:11:00.370Z,2.80
2024-03-29T06:13:53.936Z,2.70
2024-03-29T06:17:23.182Z,2.70
2024-03-29T06:20:03.209Z,2.30
2024-03-29T06:22:32.733Z,3.00
2024-03-29T06:25:10.580Z,2.20
2024-03-29T06:27:49.341Z,2.40
2024-03-29T06:30:25.906Z,2.50
2024-03-29T06:33:04.390Z,2.30
2024-03-29T06:35:40.875Z,2.60
2024-03-29T06:38:17.685Z,2.60
2024-03-29T06:40:55.113Z,2.60
2024-03-29T06:43:31.775Z,2.50
2024-03-29T06:46:09.121Z,3.40
2024-03-29T06:48:45.649Z,2.50
2024-03-29T06:51:15.429Z,2.80
2024-03-29T06:53:52.925Z,2.80
2024-03-29T06:56:31.124Z,2.70
2024-03-29T06:59:09.325Z,2.30
2024-03-29T07:01:48.763Z,2.30
2024-03-29T07:04:29.295Z,2.30
2024-03-29T07:07:05.933Z,2.20
2024-03-29T07:09:42.611Z,2.30
2024-03-29T07:12:19.715Z,3.20
2024-03-29T07:14:56.416Z,2.70
2024-03-29T07:17:33.742Z,2.40
2024-03-29T07:20:12.988Z,2.50
2024-03-29T07:22:50.177Z,2.50
2024-03-29T07:25:19.541Z,2.20
2024-03-29T07:27:54.308Z,2.40
2024-03-29T07:30:31.105Z,2.50
2024-03-29T07:33:10.845Z,2.00
2024-03-29T07:35:47.952Z,1.90
2024-03-29T07:38:26.322Z,2.30
2024-03-29T07:41:03.754Z,2.10
2024-03-29T07:44:09.521Z,1.60
2024-03-29T07:46:43.276Z,2.20
2024-03-29T07:49:26.593Z,1.80
2024-03-29T07:51:56.778Z,1.90
2024-03-29T07:54:34.116Z,2.00
2024-03-29T07:57:15.864Z,2.10
2024-03-29T07:59:55.132Z,2.40
2024-03-29T08:02:32.200Z,1.90
2024-03-29T08:05:09.929Z,1.40
2024-03-29T08:07:47.109Z,1.70
2024-03-29T08:10:23.912Z,2.10
2024-03-29T08:13:02.183Z,2.00
2024-03-29T08:15:39.641Z,1.50
2024-03-29T08:18:17.556Z,1.60
2024-03-29T08:20:56.359Z,1.60
2024-03-29T08:23:33.541Z,1.80
2024-03-29T08:26:11.585Z,1.40
2024-03-29T08:28:41.657Z,1.50
2024-03-29T08:31:16.741Z,1.30
2024-03-29T08:34:01.494Z,1.80
2024-03-29T08:36:36.844Z,1.70
2024-03-29T08:39:14.415Z,1.20
2024-03-29T08:41:52.275Z,1.10
2024-03-29T08:44:30.254Z,1.80
2024-03-29T08:47:08.386Z,1.30
2024-03-29T08:49:44.942Z,1.80
2024-03-29T08:52:23.575Z,1.60
2024-03-29T08:55:00.428Z,1.50
2024-03-29T08:57:37.909Z,1.50
2024-03-29T09:00:15.757Z,1.80
2024-03-29T09:02:53.223Z,2.20
2024-03-29T09:05:31.155Z,1.80
2024-03-29T09:08:00.681Z,2.10
2024-03-29T09:10:37.372Z,1.60
2024-03-29T09:13:14.702Z,1.70
2024-03-29T09:15:51.796Z,1.70
2024-03-29T09:18:29.660Z,1.70
2024-03-29T09:21:12.411Z,2.10
2024-03-29T09:23:54.219Z,2.00
2024-03-29T09:26:31.135Z,2.60
2024-03-29T09:29:09.302Z,1.40
2024-03-29T09:31:46.075Z,1.90
2024-03-29T09:34:24.591Z,1.90
2024-03-29T09:37:01.536Z,2.00
2024-03-29T09:39:39.488Z,1.90
2024-03-29T09:42:20.939Z,1.70
2024-03-29T09:44:59.718Z,1.80
2024-03-29T09:47:38.028Z,2.20
2024-03-29T09:50:15.998Z,1.60
2024-03-29T09:52:54.570Z,2.00
2024-03-29T09:55:32.511Z,1.70
2024-03-29T09:58:02.387Z,1.70
2024-03-29T10:00:38.796Z,1.20
2024-03-29T10:03:20.412Z,1.90
2024-03-29T10:05:58.435Z,2.20
2024-03-29T10:08:35.892Z,1.90
2024-03-29T10:11:13.260Z,1.90
2024-03-29T10:13:50.654Z,1.60
2024-03-29T10:16:27.708Z,1.70
2024-03-29T10:19:08.998Z,2.00
2024-03-29T10:21:45.627Z,1.90
2024-03-29T10:24:22.676Z,1.80
2024-03-29T10:26:59.411Z,2.20
2024-03-29T10:29:36.201Z,1.60
2024-03-29T10:32:06.292Z,2.30
2024-03-29T10:34:40.122Z,2.10
2024-03-29T10:37:28.466Z,1.70
2024-03-29T10:40:04.990Z,1.50
2024-03-29T10:42:42.081Z,1.30
2024-03-29T10:45:19.242Z,1.30
2024-03-29T10:47:55.890Z,1.60
2024-03-29T10:50:33.649Z,1.90
2024-03-29T10:53:12.488Z,1.60
2024-03-29T10:55:49.314Z,1.30
2024-03-29T10:58:32.970Z,1.40
2024-03-29T11:01:11.084Z,1.70
2024-03-29T11:04:04.344Z,1.20
2024-03-29T11:06:42.176Z,1.40
2024-03-29T11:09:21.420Z,1.30
2024-03-29T11:12:00.230Z,1.50
2024-03-29T11:15:00.300Z,1.20
2024-03-29T11:17:36.761Z,1.50
2024-03-29T11:20:17.547Z,1.30
2024-03-29T11:22:55.785Z,1.20
2024-03-29T11:25:47.086Z,1.10
2024-03-29T11:28:39.030Z,1.10
2024-03-29T11:31:15.701Z,1.10
2024-03-29T11:33:55.259Z,1.30
2024-03-29T11:36:37.521Z,1.00
2024-03-29T11:39:22.970Z,1.30
2024-03-29T11:42:02.697Z,1.20
2024-03-29T11:44:39.756Z,1.10
2024-03-29T11:47:19.735Z,1.20
2024-03-29T11:50:02.547Z,1.20
2024-03-29T11:52:39.835Z,1.30
2024-03-29T11:55:17.217Z,1.10
2024-03-29T11:57:54.398Z,1.10
2024-03-29T12:00:31.784Z,0.90
2024-03-29T12:03:09.867Z,1.20
2024-03-29T12:05:47.836Z,1.20
2024-03-29T12:08:25.507Z,1.50
2024-03-29T12:11:06.504Z,1.10
2024-03-29T12:13:43.610Z,1.10
2024-03-29T12:16:21.202Z,1.40
2024-03-29T12:18:58.617Z,1.40
2024-03-29T12:21:28.125Z,1.30
2024-03-29T12:24:03.725Z,1.10
2024-03-29T12:26:41.468Z,1.00
2024-03-29T12:29:19.337Z,1.80
2024-03-29T12:32:05.765Z,1.10
2024-03-29T12:34:42.825Z,1.40
2024-03-29T12:37:21.047Z,1.50
2024-03-29T12:39:59.001Z,1.30
2024-03-29T12:42:36.267Z,1.20
2024-03-29T12:45:13.778Z,1.30
2024-03-29T12:47:53.791Z,1.40
2024-03-29T12:50:37.292Z,1.70
2024-03-29T12:53:18.804Z,2.00
2024-03-29T12:55:55.822Z,1.30
2024-03-29T12:58:32.286Z,1.30
2024-03-29T13:01:11.185Z,1.20
2024-03-29T13:03:47.895Z,1.40
2024-03-29T13:06:24.372Z,1.80
2024-03-29T13:09:00.981Z,1.00
2024-03-29T13:11:31.798Z,1.30
2024-03-29T13:14:06.522Z,1.20
2024-03-29T13:16:44.016Z,1.30
2024-03-29T13:19:21.044Z,1.00
2024-03-29T13:22:00.210Z,1.20
2024-03-29T13:24:38.000Z,1.30
2024-03-29T13:27:15.259Z,1.20
2024-03-29T13:29:54.060Z,1.30
2024-03-29T13:32:33.814Z,1.20
2024-03-29T13:35:13.473Z,1.40
2024-03-29T13:37:50.813Z,1.40
2024-03-29T13:40:28.299Z,1.30
2024-03-29T13:43:06.005Z,1.40
2024-03-29T13:45:42.874Z,0.80
2024-03-29T13:48:20.021Z,1.20
2024-03-29T13:50:51.622Z,1.00
2024-03-29T13:53:26.043Z,1.10
2024-03-29T13:56:04.615Z,1.10
2024-03-29T13:58:41.195Z,1.20
2024-03-29T14:01:17.958Z,1.00
2024-03-29T14:03:55.532Z,1.20
2024-03-29T14:06:32.064Z,1.10
2024-03-29T14:09:09.716Z,1.20
2024-03-29T14:11:48.090Z,1.40
2024-03-29T14:14:24.039Z,1.20
2024-03-29T14:17:05.495Z,1.40
2024-03-29T14:19:42.935Z,1.00
2024-03-29T14:22:24.499Z,1.00
2024-03-29T14:25:01.663Z,1.20
2024-03-29T14:27:32.319Z,1.10
2024-03-29T14:30:07.150Z,1.30
2024-03-29T14:32:57.809Z,1.50
2024-03-29T14:35:43.113Z,1.30
2024-03-29T14:38:21.804Z,1.00
2024-03-29T14:40:59.415Z,1.20
2024-03-29T14:43:29.307Z,1.10
2024-03-29T14:46:06.232Z,1.20
2024-03-29T14:48:44.765Z,1.20
2024-03-29T14:51:22.798Z,0.80
2024-03-29T14:53:59.340Z,1.30
2024-03-29T14:56:36.246Z,1.30
2024-03-29T14:59:13.884Z,0.70
2024-03-29T15:01:51.731Z,1.30
2024-03-29T15:04:28.998Z,1.00
2024-03-29T15:07:07.561Z,1.10
2024-03-29T15:09:44.811Z,3.00
2024-03-29T15:12:22.002Z,0.60
2024-03-29T15:14:51.832Z,1.30
2024-03-29T15:17:28.331Z,1.00
2024-03-29T15:20:06.696Z,1.10
2024-03-29T15:22:46.940Z,0.80
2024-03-29T15:25:23.722Z,0.90
2024-03-29T15:28:11.716Z,1.10
2024-03-29T15:30:58.850Z,0.90
2024-03-29T15:33:29.163Z,1.00
2024-03-29T15:36:06.502Z,1.40
2024-03-29T15:38:44.642Z,1.10
2024-03-29T15:41:21.971Z,1.30
2024-03-29T15:43:59.933Z,1.20
2024-03-29T15:46:38.089Z,1.40
2024-03-29T15:49:15.110Z,1.70
2024-03-29T15:51:51.658Z,1.10
2024-03-29T15:54:28.756Z,1.20
2024-03-29T15:57:05.916Z,0.80
2024-03-29T15:59:45.592Z,1.20
2024-03-29T16:02:23.094Z,1.30
2024-03-29T16:04:54.697Z,1.20
2024-03-29T16:07:29.926Z,1.30
2024-03-29T16:10:07.691Z,1.30
2024-03-29T16:12:45.255Z,1.80
2024-03-29T16:15:22.653Z,1.40
2024-03-29T16:17:59.726Z,1.40
2024-03-29T16:20:37.013Z,0.90
2024-03-29T16:23:15.999Z,1.60
2024-03-29T16:25:59.303Z,1.30
2024-03-29T16:28:36.612Z,1.60
2024-03-29T16:31:14.187Z,1.00
2024-03-29T16:33:51.327Z,1.20
2024-03-29T16:36:28.318Z,1.40
2024-03-29T16:39:05.694Z,1.10
2024-03-29T16:41:47.481Z,1.30
2024-03-29T16:44:26.292Z,1.20
2024-03-29T16:47:04.177Z,1.40
2024-03-29T16:49:33.952Z,1.40
2024-03-29T16:52:11.288Z,1.50
2024-03-29T16:54:48.492Z,1.10
2024-03-29T16:57:25.910Z,1.40
2024-03-29T17:00:04.318Z,1.90
2024-03-29T17:02:41.432Z,1.80
2024-03-29T17:05:18.964Z,1.60
2024-03-29T17:07:56.404Z,1.70
2024-03-29T17:10:34.365Z,1.50
2024-03-29T17:13:12.811Z,1.40
2024-03-29T17:15:54.076Z,2.00
2024-03-29T17:18:31.109Z,1.70
2024-03-29T17:21:10.401Z,2.00
2024-03-29T17:23:48.668Z,2.00
2024-03-29T17:26:27.384Z,2.00
2024-03-29T17:29:06.485Z,1.70
2024-03-29T17:31:57.328Z,1.70
2024-03-29T17:34:43.051Z,2.50
2024-03-29T17:37:20.531Z,2.00
2024-03-29T17:39:57.416Z,2.10
2024-03-29T17:42:34.557Z,2.10
2024-03-29T17:45:13.104Z,2.60
2024-03-29T17:47:50.952Z,2.80
2024-03-29T17:50:29.778Z,2.90
2024-03-29T17:53:09.392Z,2.40
2024-03-29T17:55:40.389Z,2.50
2024-03-29T17:58:14.067Z,2.90
2024-03-29T18:00:53.580Z,2.70
2024-03-29T18:03:32.199Z,3.00
2024-03-29T18:06:11.304Z,3.20
2024-03-29T18:08:49.952Z,2.60
2024-03-29T18:11:28.892Z,3.10
2024-03-29T18:14:09.446Z,2.30
2024-03-29T18:19:23.812Z,3.00
2024-03-29T18:22:02.637Z,4.00
2024-03-29T18:24:40.247Z,2.10
2024-03-29T18:27:16.580Z,3.10
2024-03-29T18:29:54.628Z,3.10
2024-03-29T18:32:32.814Z,2.60
2024-03-29T18:35:13.457Z,3.20
2024-03-29T18:37:51.759Z,2.60
2024-03-29T18:40:29.402Z,2.80
2024-03-29T18:43:08.965Z,3.50
2024-03-29T18:45:48.708Z,3.00
2024-03-29T18:48:19.072Z,3.50
2024-03-29T18:50:56.920Z,3.20
2024-03-29T18:53:37.263Z,3.90
2024-03-29T18:58:52.579Z,2.90
2024-03-29T19:01:33.943Z,3.10
2024-03-29T19:04:12.758Z,4.20
2024-03-29T19:06:52.592Z,3.90
2024-03-29T19:09:30.712Z,4.00
2024-03-29T19:12:09.293Z,4.00
2024-03-29T19:14:47.844Z,3.90
2024-03-29T19:17:25.799Z,4.30
2024-03-29T19:20:04.476Z,4.40
2024-03-29T19:22:42.540Z,3.90
2024-03-29T19:25:21.928Z,5.70
2024-03-29T19:28:00.672Z,4.90
2024-03-29T19:30:38.642Z,4.90
2024-03-29T19:33:17.102Z,3.90
2024-03-29T19:35:55.106Z,3.80
2024-03-29T19:38:33.073Z,5.90
2024-03-29T19:41:12.851Z,4.70
2024-03-29T19:43:50.982Z,5.10
2024-03-29T19:46:20.963Z,3.90
2024-03-29T19:48:57.114Z,5.30
2024-03-29T19:51:35.894Z,7.10
2024-03-29T19:54:14.254Z,6.90
2024-03-29T19:56:52.608Z,5.80
2024-03-29T19:59:31.232Z,4.70
2024-03-29T20:02:10.571Z,5.90
2024-03-29T20:04:49.107Z,5.40
2024-03-29T20:07:27.674Z,7.20
2024-03-29T20:10:05.292Z,5.60
2024-03-29T20:12:43.089Z,5.30
2024-03-29T20:15:20.887Z,6.00
2024-03-29T20:17:59.343Z,6.10
2024-03-29T20:20:37.016Z,6.10
2024-03-29T20:23:15.711Z,5.00
2024-03-29T20:25:53.586Z,5.70
2024-03-29T20:28:31.490Z,5.60
2024-03-29T20:31:06.849Z,5.70
2024-03-29T20:33:38.358Z,6.20
2024-03-29T20:36:15.883Z,6.20
2024-03-29T20:38:57.672Z,4.60
2024-03-29T20:41:35.543Z,4.80
2024-03-29T20:44:14.227Z,6.70
2024-03-29T20:46:51.929Z,5.20
2024-03-29T20:49:29.349Z,5.50
2024-03-29T20:52:08.244Z,5.70
2024-03-29T20:54:46.163Z,6.70
2024-03-29T20:57:24.564Z,5.80
2024-03-29T21:00:02.853Z,6.10
2024-03-29T21:02:58.750Z,5.70
2024-03-29T21:05:41.397Z,5.40
2024-03-29T21:08:19.235Z,5.80
2024-03-29T21:10:57.210Z,5.60
2024-03-29T21:13:35.169Z,6.50
2024-03-29T21:16:13.911Z,4.60
2024-03-29T21:18:51.549Z,6.30
2024-03-29T21:21:31.877Z,6.60
2024-03-29T21:24:10.295Z,5.40
2024-03-29T21:26:47.626Z,5.60
2024-03-29T21:29:25.246Z,5.60
2024-03-29T21:32:02.761Z,5.10
2024-03-29T21:34:40.390Z,5.20
2024-03-29T21:37:18.504Z,5.40
2024-03-29T21:39:56.350Z,6.30
2024-03-29T21:42:33.841Z,5.20
2024-03-29T21:45:04.164Z,5.90
2024-03-29T21:47:40.204Z,7.70
2024-03-29T21:50:18.700Z,6.40
2024-03-29T21:52:58.723Z,5.80
2024-03-29T21:55:36.925Z,4.70
2024-03-29T21:58:14.562Z,6.10
2024-03-29T22:00:52.536Z,6.80
2024-03-29T22:03:30.125Z,6.80
2024-03-29T22:06:07.982Z,6.90
2024-03-29T22:08:45.731Z,7.20
2024-03-29T22:11:23.198Z,6.70
2024-03-29T22:14:01.213Z,5.50
2024-03-29T22:16:38.620Z,5.40
2024-03-29T22:19:08.980Z,5.00
2024-03-29T22:21:41.464Z,5.70
2024-03-29T22:24:18.975Z,5.60
2024-03-29T22:26:56.668Z,6.00
2024-03-29T22:29:34.938Z,6.60
2024-03-29T22:32:10.034Z,6.30
2024-03-29T22:34:47.905Z,5.30
2024-03-29T22:37:25.346Z,6.00
2024-03-29T22:40:03.571Z,6.20
2024-03-29T22:42:41.023Z,5.80
2024-03-29T22:45:18.794Z,5.30
2024-03-29T22:47:57.616Z,5.40
2024-03-29T22:50:35.256Z,6.40
2024-03-29T22:53:08.295Z,6.30
2024-03-29T22:55:42.703Z,5.90
2024-03-29T22:58:20.821Z,5.30
2024-03-29T23:00:59.360Z,6.50
2024-03-29T23:03:37.762Z,3.90
2024-03-29T23:06:16.647Z,7.60
2024-03-29T23:08:54.434Z,6.90
2024-03-29T23:11:31.962Z,6.20
2024-03-29T23:14:11.016Z,5.30
2024-03-29T23:16:49.166Z,6.30
2024-03-29T23:19:26.721Z,5.20
2024-03-29T23:22:04.912Z,6.00
2024-03-29T23:24:42.271Z,6.40
2024-03-29T23:27:20.099Z,6.50
2024-03-29T23:29:59.428Z,5.50
2024-03-29T23:32:37.680Z,6.40
2024-03-29T23:35:16.624Z,5.50
2024-03-29T23:37:54.937Z,4.70
2024-03-29T23:40:32.622Z,4.80
2024-03-29T23:43:11.396Z,5.40
2024-03-29T23:45:48.824Z,5.60
2024-03-29T23:48:26.414Z,7.00
2024-03-29T23:51:04.694Z,6.50
2024-03-29T23:53:42.446Z,5.40
2024-03-29T23:56:21.242Z,5.20
2024-03-29T23:59:06.794Z,5.30
